Time;durP1;ratioP1;P1;durP2;ratioP2;P2;SDS_P1;SDS_P2;PMS_P1;PMS_P2;Temp;Humidity;BMP_temperature;BMP_pressure;BME280_temperature;BME280_humidity;BME280_pressure;Samples;Min_cycle;Max_cycle;Signal;HPM_P1;HPM_P2
2021/09/03 00:01:23;;;;;;;9.55;5.08;;;12.30;99.90;;;;;;1889217;76;21106;-75
2021/09/03 00:03:49;;;;;;;8.88;5.28;;;12.30;99.90;;;;;;1889196;76;21064;-75
2021/09/03 00:06:15;;;;;;;7.00;5.78;;;12.20;99.90;;;;;;1889318;76;21134;-76
2021/09/03 00:08:41;;;;;;;11.25;6.25;;;12.20;99.90;;;;;;1889135;76;21146;-75
2021/09/03 00:11:07;;;;;;;6.12;5.50;;;12.20;99.90;;;;;;1889269;76;21068;-76
2021/09/03 00:13:33;;;;;;;7.28;5.83;;;12.20;99.90;;;;;;1889080;76;21173;-76
2021/09/03 00:16:00;;;;;;;6.45;5.33;;;12.20;99.90;;;;;;1889399;75;21225;-76
2021/09/03 00:18:26;;;;;;;8.55;6.45;;;12.20;99.90;;;;;;1889052;76;21041;-76
2021/09/03 00:20:52;;;;;;;7.00;5.17;;;12.20;99.90;;;;;;1889305;76;21108;-75
2021/09/03 00:23:18;;;;;;;15.70;5.60;;;12.10;99.90;;;;;;1904413;73;21561;-76
2021/09/03 00:25:45;;;;;;;5.53;5.00;;;12.10;99.90;;;;;;1892987;75;21653;-76
2021/09/03 00:28:11;;;;;;;6.92;5.42;;;12.00;99.90;;;;;;1889304;76;21112;-76
2021/09/03 00:30:38;;;;;;;6.83;5.67;;;12.10;99.90;;;;;;1889095;76;21040;-75
2021/09/03 00:33:04;;;;;;;5.97;5.37;;;12.00;99.90;;;;;;1889254;76;21079;-76
2021/09/03 00:35:30;;;;;;;6.47;5.42;;;12.10;99.90;;;;;;1889084;76;21134;-75
2021/09/03 00:37:56;;;;;;;6.17;5.22;;;12.00;99.90;;;;;;1889206;76;21064;-76
2021/09/03 00:40:22;;;;;;;7.97;5.30;;;12.00;99.90;;;;;;1895505;75;21083;-76
2021/09/03 00:42:48;;;;;;;10.60;5.60;;;12.00;99.90;;;;;;1889240;76;21161;-76
2021/09/03 00:45:14;;;;;;;7.92;5.42;;;12.00;99.90;;;;;;1889189;76;21083;-76
2021/09/03 00:47:40;;;;;;;5.97;5.35;;;11.90;99.90;;;;;;1889519;75;21585;-75
2021/09/03 00:50:07;;;;;;;12.30;5.78;;;11.90;99.90;;;;;;1889101;76;21512;-76
2021/09/03 00:52:33;;;;;;;6.03;5.42;;;11.90;99.90;;;;;;1889274;75;21445;-76
2021/09/03 00:54:59;;;;;;;7.58;5.72;;;11.90;99.90;;;;;;1889141;75;21464;-76
2021/09/03 00:57:25;;;;;;;8.40;5.78;;;11.80;99.90;;;;;;1889324;76;21473;-76
2021/09/03 00:59:53;;;;;;;5.83;5.30;;;11.80;99.90;;;;;;1889176;75;21056;-76
2021/09/03 01:02:19;;;;;;;7.80;5.70;;;11.80;99.90;;;;;;1889271;75;21171;-76
2021/09/03 01:04:45;;;;;;;7.85;5.40;;;11.80;99.90;;;;;;1889171;76;21068;-76
2021/09/03 01:07:11;;;;;;;6.95;5.65;;;11.80;99.90;;;;;;1889071;76;21072;-75
2021/09/03 01:09:38;;;;;;;12.55;6.65;;;11.70;99.90;;;;;;1889130;76;21045;-76
2021/09/03 01:12:05;;;;;;;7.72;6.70;;;11.70;99.90;;;;;;1889149;75;21131;-76
2021/09/03 01:14:31;;;;;;;8.53;6.62;;;11.60;99.90;;;;;;1889220;76;21076;-76
2021/09/03 01:16:57;;;;;;;6.55;5.78;;;11.60;99.90;;;;;;1889308;76;21120;-76
2021/09/03 01:19:23;;;;;;;7.53;6.58;;;11.60;99.90;;;;;;1889054;76;21583;-75
2021/09/03 01:21:49;;;;;;;8.15;6.72;;;11.60;99.90;;;;;;1889282;76;21081;-76
2021/09/03 01:24:16;;;;;;;9.05;6.33;;;11.70;99.90;;;;;;1889064;76;21118;-75
2021/09/03 01:26:42;;;;;;;6.90;6.30;;;11.60;99.90;;;;;;1889248;76;21080;-76
2021/09/03 01:29:08;;;;;;;11.50;6.55;;;11.60;99.90;;;;;;1889141;76;21072;-76
2021/09/03 01:31:34;;;;;;;8.70;6.50;;;11.60;99.90;;;;;;1889154;76;21190;-76
2021/09/03 01:34:00;;;;;;;6.83;6.12;;;11.60;99.90;;;;;;1889156;76;21045;-76
2021/09/03 01:36:26;;;;;;;7.62;6.25;;;11.50;99.90;;;;;;1889248;76;21154;-76
2021/09/03 01:38:53;;;;;;;7.55;6.72;;;11.50;99.90;;;;;;1889053;76;21524;-76
2021/09/03 01:41:19;;;;;;;8.08;6.33;;;11.40;99.90;;;;;;1889205;76;21076;-75
2021/09/03 01:43:45;;;;;;;9.13;7.10;;;11.40;99.90;;;;;;1889324;76;21072;-76
2021/09/03 01:46:11;;;;;;;9.00;6.45;;;11.40;99.90;;;;;;1889325;76;21085;-76
2021/09/03 01:48:37;;;;;;;9.15;6.62;;;11.40;99.90;;;;;;1889344;76;21093;-76
2021/09/03 01:51:03;;;;;;;8.85;6.65;;;11.50;99.90;;;;;;1889342;76;21136;-76
2021/09/03 01:53:30;;;;;;;8.50;6.30;;;11.40;99.90;;;;;;1889288;76;21072;-76
2021/09/03 01:55:56;;;;;;;6.55;5.58;;;11.40;99.90;;;;;;1889060;76;21037;-76
2021/09/03 01:58:22;;;;;;;13.43;6.70;;;11.40;99.90;;;;;;1889230;76;21068;-76
2021/09/03 02:00:48;;;;;;;7.70;6.08;;;11.40;99.90;;;;;;1889065;75;21087;-76
2021/09/03 02:03:14;;;;;;;6.28;5.67;;;11.30;99.90;;;;;;1889231;76;21121;-76
2021/09/03 02:05:40;;;;;;;6.47;5.67;;;11.30;99.90;;;;;;1889113;76;21076;-76
2021/09/03 02:08:07;;;;;;;7.92;6.00;;;11.30;99.90;;;;;;1889343;76;21085;-76
2021/09/03 02:10:33;;;;;;;9.63;5.97;;;11.20;99.90;;;;;;1889039;76;21068;-76
2021/09/03 02:12:59;;;;;;;6.45;5.50;;;11.20;99.90;;;;;;1889278;76;21114;-76
2021/09/03 02:15:25;;;;;;;14.23;5.92;;;11.10;99.90;;;;;;1889012;76;21080;-76
2021/09/03 02:17:51;;;;;;;7.20;5.50;;;11.10;99.90;;;;;;1889227;76;21076;-76
2021/09/03 02:20:17;;;;;;;6.62;5.85;;;11.20;99.90;;;;;;1889029;76;21150;-75
2021/09/03 02:22:45;;;;;;;8.63;6.08;;;11.10;99.90;;;;;;1889224;76;21173;-76
2021/09/03 02:25:11;;;;;;;7.67;5.35;;;11.00;99.90;;;;;;1889048;76;21063;-77
2021/09/03 02:27:37;;;;;;;6.75;6.12;;;11.00;99.90;;;;;;1889136;76;21068;-77
2021/09/03 02:30:03;;;;;;;7.65;6.40;;;11.00;99.90;;;;;;1889142;76;21033;-76
2021/09/03 02:32:29;;;;;;;7.58;6.00;;;11.00;99.90;;;;;;1889090;76;21130;-76
2021/09/03 02:34:55;;;;;;;6.00;5.40;;;11.00;99.90;;;;;;1889035;76;21064;-76
2021/09/03 02:37:21;;;;;;;10.55;6.20;;;11.00;99.90;;;;;;1889063;76;21133;-76
2021/09/03 02:39:48;;;;;;;12.85;5.78;;;11.00;99.90;;;;;;1889092;76;21060;-76
2021/09/03 02:42:14;;;;;;;7.90;5.92;;;11.00;99.90;;;;;;1889096;76;21139;-76
2021/09/03 02:44:40;;;;;;;7.20;5.60;;;10.90;99.90;;;;;;1889060;76;21048;-76
2021/09/03 02:47:06;;;;;;;7.17;5.42;;;10.90;99.90;;;;;;1889072;76;21071;-76
2021/09/03 02:49:32;;;;;;;9.98;6.05;;;10.90;99.90;;;;;;1889118;76;21064;-76
2021/09/03 02:51:58;;;;;;;6.33;5.72;;;10.80;99.90;;;;;;1889044;76;21169;-76
2021/09/03 02:54:24;;;;;;;8.25;6.03;;;10.80;99.90;;;;;;1889174;76;21550;-76
2021/09/03 02:56:50;;;;;;;9.35;5.47;;;10.80;99.90;;;;;;1901734;75;21556;-76
2021/09/03 02:59:17;;;;;;;7.10;5.60;;;10.70;99.90;;;;;;1889005;76;21522;-76
2021/09/03 03:01:43;;;;;;;7.85;5.80;;;10.70;99.90;;;;;;1889225;75;21622;-76
2021/09/03 03:04:09;;;;;;;7.25;5.97;;;10.70;99.90;;;;;;1888983;76;21520;-76
2021/09/03 03:06:35;;;;;;;9.10;6.08;;;10.70;99.90;;;;;;1889167;76;21088;-76
2021/09/03 03:09:01;;;;;;;8.10;5.70;;;10.70;99.90;;;;;;1897548;75;21079;-76
2021/09/03 03:11:27;;;;;;;9.93;6.03;;;10.70;99.90;;;;;;1893122;75;21083;-76
2021/09/03 03:14:02;;;;;;;6.50;5.80;;;10.70;99.90;;;;;;1888939;76;21149;-76
2021/09/03 03:16:21;;;;;;;13.40;6.20;;;10.60;99.90;;;;;;1888380;75;21482;-75
2021/09/03 03:18:47;;;;;;;6.50;5.90;;;10.60;99.90;;;;;;1889180;76;21530;-76
2021/09/03 03:21:13;;;;;;;8.48;5.78;;;10.60;99.90;;;;;;1889036;75;21524;-76
2021/09/03 03:23:39;;;;;;;10.10;6.85;;;10.60;99.90;;;;;;1889283;76;21637;-76
2021/09/03 03:26:06;;;;;;;8.60;6.65;;;10.60;99.90;;;;;;1888976;76;21496;-76
2021/09/03 03:28:32;;;;;;;7.40;6.62;;;10.40;99.90;;;;;;1889153;76;21076;-76
2021/09/03 03:30:58;;;;;;;12.18;6.30;;;10.50;99.90;;;;;;1888987;76;21072;-76
2021/09/03 03:33:24;;;;;;;8.78;6.90;;;10.50;99.90;;;;;;1889122;76;21080;-76
2021/09/03 03:35:50;;;;;;;6.92;6.10;;;10.50;99.90;;;;;;1889050;75;21102;-75
2021/09/03 03:38:16;;;;;;;8.50;6.05;;;10.40;99.90;;;;;;1889166;75;21138;-76
2021/09/03 03:40:42;;;;;;;10.32;6.53;;;10.40;99.90;;;;;;1888982;76;21072;-75
2021/09/03 03:43:08;;;;;;;7.80;6.53;;;10.40;99.90;;;;;;1889143;75;21083;-76
2021/09/03 03:45:35;;;;;;;9.83;6.40;;;10.40;99.90;;;;;;1888989;76;21177;-76
2021/09/03 03:48:01;;;;;;;9.90;6.45;;;10.30;99.90;;;;;;1889166;76;21146;-76
2021/09/03 03:50:27;;;;;;;7.25;5.92;;;10.40;99.90;;;;;;1889271;76;21097;-75
2021/09/03 03:52:53;;;;;;;8.88;6.72;;;10.30;99.90;;;;;;1889237;76;21153;-76
2021/09/03 03:55:20;;;;;;;8.23;5.72;;;10.40;99.90;;;;;;1889215;76;21074;-76
2021/09/03 03:57:46;;;;;;;10.15;6.90;;;10.30;99.90;;;;;;1889120;76;21142;-76
2021/09/03 04:00:12;;;;;;;9.60;7.00;;;10.20;99.90;;;;;;1888950;76;21150;-76
2021/09/03 04:02:39;;;;;;;8.88;6.33;;;10.20;99.90;;;;;;1889337;76;21072;-76
2021/09/03 04:05:05;;;;;;;6.95;6.03;;;10.20;99.90;;;;;;1888949;76;21084;-76
2021/09/03 04:07:31;;;;;;;8.18;6.85;;;10.20;99.90;;;;;;1889109;76;21192;-76
2021/09/03 04:09:57;;;;;;;7.22;6.22;;;10.20;99.90;;;;;;1889041;76;21072;-75
2021/09/03 04:12:23;;;;;;;10.75;7.30;;;10.20;99.90;;;;;;1888972;75;21153;-76
2021/09/03 04:14:49;;;;;;;8.60;7.22;;;10.20;99.90;;;;;;1889028;76;21066;-75
2021/09/03 04:17:15;;;;;;;10.88;7.17;;;10.20;99.90;;;;;;1889114;76;21080;-76
2021/09/03 04:19:41;;;;;;;7.08;6.37;;;10.20;99.90;;;;;;1889112;76;21076;-76
2021/09/03 04:22:08;;;;;;;8.00;6.87;;;10.10;99.90;;;;;;1889096;76;21238;-76
2021/09/03 04:24:34;;;;;;;9.75;6.12;;;10.10;99.90;;;;;;1889128;75;21150;-75
2021/09/03 04:27:00;;;;;;;10.43;6.72;;;10.10;99.90;;;;;;1892072;76;21060;-76
2021/09/03 04:29:26;;;;;;;10.18;6.58;;;10.00;99.90;;;;;;1890571;76;21208;-76
2021/09/03 04:31:53;;;;;;;9.03;6.37;;;10.10;99.90;;;;;;1889110;76;21142;-76
2021/09/03 04:34:19;;;;;;;8.35;7.08;;;10.00;99.90;;;;;;1889090;76;21079;-76
2021/09/03 04:36:45;;;;;;;10.75;7.08;;;10.10;99.90;;;;;;1889124;76;21119;-76
2021/09/03 04:39:11;;;;;;;15.05;6.75;;;10.00;99.90;;;;;;1889159;75;21076;-76
2021/09/03 04:41:37;;;;;;;14.38;7.25;;;10.00;99.90;;;;;;1889118;76;21044;-76
2021/09/03 04:44:03;;;;;;;7.78;6.78;;;10.00;99.90;;;;;;1889211;76;21071;-76
2021/09/03 04:46:29;;;;;;;8.95;6.97;;;10.00;99.90;;;;;;1889022;76;21138;-76
2021/09/03 04:48:56;;;;;;;11.48;7.87;;;10.00;99.90;;;;;;1876959;76;21079;-75
2021/09/03 04:51:22;;;;;;;8.73;6.83;;;10.00;99.90;;;;;;1889003;76;21049;-76
2021/09/03 04:53:48;;;;;;;11.38;7.70;;;9.90;99.90;;;;;;1889168;76;21088;-76
2021/09/03 04:56:14;;;;;;;10.40;7.05;;;10.00;99.90;;;;;;1889097;76;21068;-76
2021/09/03 04:58:40;;;;;;;7.12;6.42;;;10.00;99.90;;;;;;1889109;75;21075;-76
2021/09/03 05:01:06;;;;;;;10.82;7.08;;;10.00;99.90;;;;;;1889165;76;21049;-76
2021/09/03 05:03:32;;;;;;;7.45;5.97;;;10.00;99.90;;;;;;1889210;76;21142;-76
2021/09/03 05:05:58;;;;;;;9.40;6.90;;;10.00;99.90;;;;;;1889212;76;21145;-75
2021/09/03 05:08:25;;;;;;;13.13;6.92;;;10.10;99.90;;;;;;1889272;76;21079;-75
2021/09/03 05:10:51;;;;;;;8.38;6.28;;;10.10;99.90;;;;;;1889198;76;21052;-75
2021/09/03 05:13:17;;;;;;;6.60;5.95;;;10.00;99.90;;;;;;1889326;75;21158;-75
2021/09/03 05:15:43;;;;;;;10.15;6.62;;;10.10;99.90;;;;;;1889140;76;21087;-76
2021/09/03 05:18:09;;;;;;;9.35;6.80;;;10.10;99.90;;;;;;1889363;76;21113;-76
2021/09/03 05:20:36;;;;;;;12.25;6.95;;;10.10;99.90;;;;;;1889010;75;21092;-76
2021/09/03 05:23:02;;;;;;;8.13;6.40;;;10.10;99.90;;;;;;1889230;76;21071;-76
2021/09/03 05:25:28;;;;;;;8.50;6.47;;;10.10;99.90;;;;;;1889075;75;21080;-76
2021/09/03 05:27:54;;;;;;;8.15;6.92;;;10.10;99.90;;;;;;1889221;75;21068;-76
2021/09/03 05:30:20;;;;;;;8.53;7.15;;;10.00;99.90;;;;;;1888991;76;21071;-76
2021/09/03 05:32:46;;;;;;;8.80;6.50;;;10.00;99.90;;;;;;1889147;76;21083;-76
2021/09/03 05:35:12;;;;;;;14.58;7.17;;;10.10;99.90;;;;;;1889004;76;21088;-76
2021/09/03 05:37:39;;;;;;;9.15;7.22;;;10.20;99.90;;;;;;1889260;76;21088;-76
2021/09/03 05:40:05;;;;;;;7.80;6.75;;;10.30;99.90;;;;;;1889103;76;21559;-76
2021/09/03 05:42:31;;;;;;;7.08;6.35;;;10.30;99.90;;;;;;1889139;76;21520;-76
2021/09/03 05:44:57;;;;;;;12.25;6.55;;;10.30;99.90;;;;;;1895948;75;21566;-75
2021/09/03 05:47:23;;;;;;;9.08;6.67;;;10.30;99.90;;;;;;1889181;75;21544;-75
2021/09/03 05:49:49;;;;;;;11.33;7.12;;;10.20;99.90;;;;;;1888986;76;21453;-75
2021/09/03 05:52:15;;;;;;;8.83;6.60;;;10.30;99.90;;;;;;1889359;76;21591;-75
2021/09/03 05:54:41;;;;;;;12.37;6.95;;;10.40;99.90;;;;;;1888961;76;21145;-76
2021/09/03 05:57:08;;;;;;;8.75;7.00;;;10.40;99.90;;;;;;1889110;76;21145;-75
2021/09/03 05:59:34;;;;;;;10.10;6.83;;;10.50;99.90;;;;;;1888974;76;21068;-76
2021/09/03 06:02:00;;;;;;;9.03;6.97;;;10.50;99.90;;;;;;1889222;76;21193;-76
2021/09/03 06:04:26;;;;;;;11.80;7.00;;;10.60;99.90;;;;;;1889027;76;21072;-76
2021/09/03 06:06:52;;;;;;;10.45;7.42;;;10.70;99.90;;;;;;1889148;76;21049;-75
2021/09/03 06:09:18;;;;;;;8.38;6.75;;;10.70;99.90;;;;;;1888996;76;21068;-75
2021/09/03 06:11:44;;;;;;;8.38;6.95;;;10.80;99.90;;;;;;1889112;76;21075;-75
2021/09/03 06:14:10;;;;;;;9.63;7.00;;;10.90;99.90;;;;;;1888858;76;21076;-75
2021/09/03 06:16:37;;;;;;;7.50;6.37;;;10.90;99.90;;;;;;1889123;76;21049;-75
2021/09/03 06:19:03;;;;;;;8.60;6.83;;;10.90;99.90;;;;;;1889130;76;21150;-76
2021/09/03 06:21:29;;;;;;;10.25;7.00;;;10.90;99.90;;;;;;1889112;76;21076;-76
2021/09/03 06:23:55;;;;;;;15.15;7.30;;;11.00;99.90;;;;;;1889040;76;21237;-76
2021/09/03 06:26:21;;;;;;;8.68;7.08;;;11.10;99.90;;;;;;1889178;76;21574;-75
2021/09/03 06:28:47;;;;;;;14.00;8.85;;;11.10;99.90;;;;;;1889085;76;21476;-76
2021/09/03 06:31:13;;;;;;;9.93;7.28;;;11.10;99.90;;;;;;1889046;76;21520;-76
2021/09/03 06:33:39;;;;;;;12.18;8.35;;;11.20;99.90;;;;;;1889101;75;21511;-75
2021/09/03 06:36:06;;;;;;;21.45;8.85;;;11.30;99.90;;;;;;1889107;76;21504;-76
2021/09/03 06:38:32;;;;;;;31.42;8.40;;;11.40;99.90;;;;;;1889075;76;21425;-75
2021/09/03 06:40:58;;;;;;;12.82;7.97;;;11.60;99.90;;;;;;1889231;76;21166;-75
2021/09/03 06:43:25;;;;;;;13.72;8.93;;;11.70;99.90;;;;;;1889029;76;21084;-75
2021/09/03 06:45:51;;;;;;;13.22;8.88;;;11.90;99.90;;;;;;1889138;75;21041;-73
2021/09/03 06:48:21;;;;;;;14.50;8.23;;;12.00;99.90;;;;;;1889019;75;21141;-72
2021/09/03 06:50:45;;;;;;;10.28;8.23;;;12.10;99.90;;;;;;1889030;75;21175;-72
2021/09/03 06:53:11;;;;;;;11.60;7.42;;;12.30;99.90;;;;;;1888991;76;21150;-73
2021/09/03 06:55:37;;;;;;;8.78;7.75;;;12.40;99.90;;;;;;1889142;76;21072;-75
2021/09/03 06:58:03;;;;;;;9.48;8.58;;;12.50;99.90;;;;;;1889370;76;21089;-75
2021/09/03 07:00:29;;;;;;;10.45;7.90;;;12.60;99.90;;;;;;1889333;75;21101;-75
2021/09/03 07:02:55;;;;;;;9.55;7.35;;;12.70;99.90;;;;;;1889282;76;21049;-75
2021/09/03 07:05:21;;;;;;;12.53;7.80;;;12.90;99.90;;;;;;1889271;76;21056;-75
2021/09/03 07:07:48;;;;;;;19.37;8.85;;;13.00;99.90;;;;;;1889314;76;21076;-74
2021/09/03 07:10:15;;;;;;;8.35;6.75;;;13.20;99.90;;;;;;1889200;76;21146;-75
2021/09/03 07:12:41;;;;;;;8.85;7.12;;;13.30;99.90;;;;;;1889155;75;21045;-75
2021/09/03 07:15:09;;;;;;;15.48;9.63;;;13.40;99.90;;;;;;1889252;75;21064;-75
2021/09/03 07:17:35;;;;;;;13.83;7.72;;;13.40;99.90;;;;;;1876752;76;21160;-74
2021/09/03 07:20:01;;;;;;;10.05;7.45;;;13.50;99.90;;;;;;1889076;75;21503;-75
2021/09/03 07:22:27;;;;;;;9.20;6.70;;;13.50;99.90;;;;;;1889092;76;21519;-75
2021/09/03 07:24:53;;;;;;;10.40;7.53;;;13.60;99.90;;;;;;1889143;76;21496;-75
2021/09/03 07:27:19;;;;;;;8.53;6.95;;;13.80;99.90;;;;;;1889189;76;21457;-75
2021/09/03 07:29:45;;;;;;;8.63;6.90;;;13.80;99.90;;;;;;1888988;76;21460;-75
2021/09/03 07:32:11;;;;;;;11.93;7.35;;;13.90;99.90;;;;;;1894982;73;21056;-75
2021/09/03 07:34:38;;;;;;;9.58;7.70;;;14.20;99.90;;;;;;1889054;76;21079;-76
2021/09/03 07:37:04;;;;;;;8.48;7.03;;;14.30;99.90;;;;;;1889094;76;21068;-75
2021/09/03 07:39:30;;;;;;;7.95;7.15;;;14.60;99.90;;;;;;1889069;76;21080;-76
2021/09/03 07:41:56;;;;;;;9.05;7.00;;;14.70;99.90;;;;;;1889023;75;21080;-76
2021/09/03 07:44:22;;;;;;;7.72;6.90;;;14.70;99.90;;;;;;1889031;76;21142;-76
2021/09/03 07:46:48;;;;;;;12.63;7.35;;;14.70;99.90;;;;;;1889290;76;21075;-76
2021/09/03 07:49:14;;;;;;;8.75;6.97;;;14.90;99.90;;;;;;1889312;76;21146;-76
2021/09/03 07:51:40;;;;;;;7.45;6.75;;;15.10;99.90;;;;;;1889097;76;21138;-76
2021/09/03 07:54:07;;;;;;;8.78;7.22;;;15.20;99.90;;;;;;1889009;76;21138;-76
2021/09/03 07:56:33;;;;;;;11.95;7.30;;;15.30;99.90;;;;;;1889237;76;21083;-76
2021/09/03 07:58:59;;;;;;;7.62;6.67;;;15.50;99.90;;;;;;1894475;75;21060;-76
2021/09/03 08:01:25;;;;;;;13.20;6.62;;;15.90;99.90;;;;;;1891735;75;21089;-76
2021/09/03 08:03:51;;;;;;;8.48;6.72;;;16.00;99.90;;;;;;1895477;75;21134;-76
2021/09/03 08:06:17;;;;;;;10.90;6.65;;;16.20;99.90;;;;;;1899069;75;21075;-75
2021/09/03 08:08:43;;;;;;;7.45;6.17;;;16.60;99.90;;;;;;1898034;75;21075;-75
2021/09/03 08:11:10;;;;;;;10.03;6.30;;;16.80;99.90;;;;;;1889127;76;21068;-75
2021/09/03 08:13:36;;;;;;;8.95;6.30;;;17.10;99.90;;;;;;1889085;76;21079;-75
2021/09/03 08:16:03;;;;;;;8.43;5.97;;;17.40;99.90;;;;;;1889297;76;21068;-74
2021/09/03 08:18:29;;;;;;;11.18;6.42;;;17.80;99.90;;;;;;1889111;75;21083;-74
2021/09/03 08:20:55;;;;;;;7.85;5.85;;;18.10;99.90;;;;;;1889184;76;21438;-75
2021/09/03 08:23:21;;;;;;;7.75;6.35;;;18.60;99.90;;;;;;1889079;76;21453;-75
2021/09/03 08:25:47;;;;;;;10.30;5.97;;;18.90;99.90;;;;;;1889119;76;21546;-75
2021/09/03 08:28:13;;;;;;;8.00;6.20;;;19.20;99.90;;;;;;1889141;76;21565;-75
2021/09/03 08:30:39;;;;;;;9.10;5.40;;;19.00;99.90;;;;;;1889109;75;21469;-75
2021/09/03 08:33:06;;;;;;;8.85;5.80;;;19.00;99.90;;;;;;1889212;75;21593;-74
2021/09/03 08:35:32;;;;;;;9.20;5.20;;;19.40;99.90;;;;;;1889253;75;21076;-74
2021/09/03 08:37:58;;;;;;;13.22;6.00;;;19.50;99.90;;;;;;1889311;76;21114;-74
2021/09/03 08:40:24;;;;;;;8.83;5.75;;;19.60;99.90;;;;;;1889248;76;21167;-75
2021/09/03 08:42:50;;;;;;;8.28;5.25;;;19.60;99.90;;;;;;1889271;75;21093;-74
2021/09/03 08:45:16;;;;;;;6.17;5.12;;;19.80;99.90;;;;;;1889203;76;21097;-74
2021/09/03 08:47:42;;;;;;;6.62;5.03;;;19.90;99.90;;;;;;1889199;76;21060;-75
2021/09/03 08:50:08;;;;;;;10.48;5.58;;;20.20;99.90;;;;;;1889074;76;21512;-74
2021/09/03 08:52:35;;;;;;;5.55;4.78;;;20.50;99.90;;;;;;1889195;75;21458;-74
2021/09/03 08:55:01;;;;;;;6.75;5.35;;;20.70;99.90;;;;;;1889170;76;21516;-74
2021/09/03 08:57:27;;;;;;;8.10;5.37;;;20.90;99.90;;;;;;1889242;76;21535;-75
2021/09/03 08:59:53;;;;;;;12.73;5.37;;;21.00;99.90;;;;;;1889129;76;21501;-75
2021/09/03 09:02:23;;;;;;;5.35;4.60;;;20.90;99.90;;;;;;1889210;76;21047;-74
2021/09/03 09:04:47;;;;;;;8.65;5.22;;;21.10;99.90;;;;;;1888144;75;21248;-74
2021/09/03 09:07:13;;;;;;;8.68;5.30;;;21.50;99.90;;;;;;1889246;76;21087;-75
2021/09/03 09:09:39;;;;;;;6.92;4.65;;;21.20;99.90;;;;;;1889231;76;21047;-74
2021/09/03 09:12:05;;;;;;;6.35;5.33;;;21.40;99.90;;;;;;1889256;76;21581;-74
2021/09/03 09:14:32;;;;;;;6.17;5.40;;;21.10;99.90;;;;;;1889061;76;21141;-74
2021/09/03 09:16:58;;;;;;;8.33;4.80;;;21.50;99.90;;;;;;1889265;76;21072;-74
2021/09/03 09:19:24;;;;;;;6.37;4.60;;;21.60;99.90;;;;;;1889074;76;21138;-74
2021/09/03 09:21:50;;;;;;;6.62;4.60;;;21.70;99.90;;;;;;1889276;76;21135;-74
2021/09/03 09:24:16;;;;;;;8.03;5.08;;;21.70;99.90;;;;;;1889364;76;21097;-74
2021/09/03 09:26:42;;;;;;;7.42;4.55;;;22.00;99.90;;;;;;1889389;76;21092;-74
2021/09/03 09:29:08;;;;;;;6.70;4.60;;;21.80;99.90;;;;;;1889347;76;21092;-74
2021/09/03 09:31:34;;;;;;;5.15;4.50;;;21.80;99.90;;;;;;1889301;75;21090;-74
2021/09/03 09:34:01;;;;;;;8.03;4.80;;;22.00;99.90;;;;;;1889319;76;21138;-74
2021/09/03 09:36:27;;;;;;;8.90;4.72;;;22.10;99.90;;;;;;1889285;76;21072;-74
2021/09/03 09:38:53;;;;;;;6.03;4.62;;;22.30;99.90;;;;;;1889218;76;21039;-74
2021/09/03 09:41:20;;;;;;;5.00;4.15;;;22.50;99.90;;;;;;1889263;76;21089;-73
2021/09/03 09:43:46;;;;;;;4.90;4.45;;;22.20;99.90;;;;;;1889235;76;21071;-74
2021/09/03 09:46:14;;;;;;;8.73;4.50;;;22.10;99.90;;;;;;1889181;75;21076;-74
2021/09/03 09:48:40;;;;;;;7.42;3.98;;;22.40;99.90;;;;;;1889031;76;21511;-74
2021/09/03 09:51:06;;;;;;;5.53;4.62;;;23.00;99.90;;;;;;1889243;76;21485;-75
2021/09/03 09:53:34;;;;;;;6.33;5.72;;;22.60;99.90;;;;;;1889166;75;21429;-74
2021/09/03 09:56:00;;;;;;;4.92;4.40;;;22.80;99.90;;;;;;1889177;75;21141;-75
2021/09/03 09:58:26;;;;;;;4.62;3.92;;;23.00;99.90;;;;;;1889220;75;21151;-75
2021/09/03 10:00:52;;;;;;;11.80;4.47;;;23.00;99.90;;;;;;1889098;76;21091;-74
2021/09/03 10:03:18;;;;;;;6.90;4.40;;;22.90;99.90;;;;;;1889384;76;21123;-75
2021/09/03 10:05:45;;;;;;;7.55;4.45;;;23.20;99.90;;;;;;1877958;76;21149;-74
2021/09/03 10:08:11;;;;;;;4.03;3.70;;;22.50;99.90;;;;;;1891199;76;21112;-75
2021/09/03 10:10:37;;;;;;;6.62;4.08;;;23.20;99.90;;;;;;1889001;75;21076;-75
2021/09/03 10:13:03;;;;;;;4.90;4.08;;;23.40;99.90;;;;;;1888954;76;21001;-74
2021/09/03 10:15:29;;;;;;;11.57;4.12;;;23.70;99.90;;;;;;1889196;76;21146;-75
2021/09/03 10:17:55;;;;;;;5.30;4.22;;;23.90;99.90;;;;;;1889097;76;21080;-75
2021/09/03 10:20:21;;;;;;;7.87;4.12;;;24.00;99.90;;;;;;1889115;76;21072;-75
2021/09/03 10:22:49;;;;;;;8.65;4.30;;;24.20;99.90;;;;;;1906921;73;21130;-75
2021/09/03 10:25:15;;;;;;;4.75;4.28;;;24.30;99.90;;;;;;1902469;75;21554;-75
2021/09/03 10:27:41;;;;;;;4.92;3.72;;;24.60;99.90;;;;;;1901214;75;21512;-75
2021/09/03 10:30:07;;;;;;;4.83;4.30;;;24.70;99.90;;;;;;1889124;75;21500;-74
2021/09/03 10:32:34;;;;;;;4.80;4.15;;;24.70;99.90;;;;;;1889082;76;21037;-74
2021/09/03 10:35:00;;;;;;;6.37;3.77;;;25.10;99.90;;;;;;1889096;75;21165;-75
2021/09/03 10:37:27;;;;;;;5.08;4.53;;;24.60;99.90;;;;;;1889146;76;21096;-74
2021/09/03 10:39:54;;;;;;;4.78;3.77;;;24.20;99.90;;;;;;1894406;75;21071;-74
2021/09/03 10:42:20;;;;;;;4.33;3.83;;;24.20;99.90;;;;;;1889010;75;21095;-75
2021/09/03 10:44:46;;;;;;;6.45;3.60;;;24.50;99.90;;;;;;1889181;76;21150;-74
2021/09/03 10:47:12;;;;;;;7.58;4.42;;;25.20;99.90;;;;;;1889202;76;21138;-75
2021/09/03 10:49:38;;;;;;;4.35;3.95;;;24.80;99.90;;;;;;1889203;76;21076;-74
2021/09/03 10:52:04;;;;;;;7.55;4.08;;;24.90;99.90;;;;;;1889109;76;21071;-75
2021/09/03 10:54:31;;;;;;;4.10;3.70;;;25.40;99.90;;;;;;1889026;76;21088;-75
2021/09/03 10:56:57;;;;;;;4.58;4.15;;;24.90;99.90;;;;;;1889059;76;21133;-75
2021/09/03 10:59:23;;;;;;;5.42;4.17;;;25.20;99.90;;;;;;1889030;76;21079;-75
2021/09/03 11:01:50;;;;;;;4.67;3.37;;;25.10;99.90;;;;;;1889054;76;21141;-75
2021/09/03 11:04:16;;;;;;;3.83;3.52;;;24.40;99.90;;;;;;1889069;76;21085;-75
2021/09/03 11:06:43;;;;;;;4.50;3.58;;;24.60;99.90;;;;;;1889109;76;21079;-75
2021/09/03 11:09:09;;;;;;;4.22;3.80;;;24.70;99.90;;;;;;1889112;75;21127;-75
2021/09/03 11:11:35;;;;;;;5.10;3.60;;;25.00;99.90;;;;;;1889031;76;21076;-75
2021/09/03 11:14:01;;;;;;;5.60;3.80;;;24.60;99.90;;;;;;1888930;76;21080;-75
2021/09/03 11:16:27;;;;;;;3.83;3.40;;;24.80;99.90;;;;;;1889067;76;21145;-75
2021/09/03 11:18:53;;;;;;;11.43;4.25;;;25.40;99.90;;;;;;1889232;76;21045;-75
2021/09/03 11:21:19;;;;;;;5.12;3.72;;;25.20;99.90;;;;;;1888995;75;21072;-75
2021/09/03 11:23:45;;;;;;;7.55;3.20;;;25.80;99.90;;;;;;1889234;76;21157;-75
2021/09/03 11:26:12;;;;;;;3.60;3.05;;;25.70;99.90;;;;;;1888993;76;21147;-74
2021/09/03 11:28:38;;;;;;;3.37;3.08;;;26.10;99.90;;;;;;1889169;76;21084;-74
2021/09/03 11:31:04;;;;;;;4.28;3.22;;;26.20;99.90;;;;;;1889298;76;21096;-74
2021/09/03 11:33:30;;;;;;;3.42;2.60;;;26.60;99.90;;;;;;1889253;76;21076;-75
2021/09/03 11:35:56;;;;;;;4.22;3.22;;;26.90;99.90;;;;;;1889357;76;21100;-74
2021/09/03 11:38:22;;;;;;;5.78;3.02;;;26.60;99.90;;;;;;1889390;76;21085;-74
2021/09/03 11:40:48;;;;;;;3.77;3.10;;;26.80;99.90;;;;;;1889392;76;21151;-74
2021/09/03 11:43:15;;;;;;;4.47;3.22;;;26.80;99.90;;;;;;1889370;76;21104;-74
2021/09/03 11:45:43;;;;;;;4.80;3.40;;;26.90;99.90;;;;;;1889204;76;21505;-74
2021/09/03 11:48:09;;;;;;;7.17;3.90;;;27.30;99.90;;;;;;1889017;75;21167;-75
2021/09/03 11:50:35;;;;;;;3.27;2.98;;;27.40;99.90;;;;;;1889319;76;21552;-74
2021/09/03 11:53:01;;;;;;;3.10;2.90;;;27.30;99.90;;;;;;1889173;76;21492;-73
2021/09/03 11:55:27;;;;;;;3.85;3.33;;;27.80;99.90;;;;;;1889049;76;21085;-73
2021/09/03 11:57:53;;;;;;;3.60;3.30;;;27.60;99.90;;;;;;1889106;76;21080;-74
2021/09/03 12:00:20;;;;;;;3.90;3.25;;;27.00;99.90;;;;;;1889115;75;21095;-74
2021/09/03 12:02:46;;;;;;;4.87;3.50;;;27.00;99.90;;;;;;1889189;75;21091;-74
2021/09/03 12:05:12;;;;;;;3.60;3.12;;;27.90;99.90;;;;;;1889154;75;21125;-73
2021/09/03 12:07:38;;;;;;;2.98;2.77;;;28.60;99.90;;;;;;1889202;75;21635;-73
2021/09/03 12:10:04;;;;;;;3.33;3.02;;;28.70;99.90;;;;;;1889259;76;21453;-74
2021/09/03 12:12:30;;;;;;;3.20;2.90;;;29.00;99.90;;;;;;1889248;76;21516;-74
2021/09/03 12:14:56;;;;;;;3.55;2.85;;;29.30;99.90;;;;;;1889105;76;21455;-74
2021/09/03 12:17:23;;;;;;;2.85;2.55;;;28.50;99.90;;;;;;1889224;76;21496;-73
2021/09/03 12:19:49;;;;;;;3.40;2.80;;;28.90;99.90;;;;;;1889130;76;21170;-74
2021/09/03 12:22:16;;;;;;;3.33;2.90;;;29.10;99.90;;;;;;1889262;76;21080;-74
2021/09/03 12:24:42;;;;;;;7.05;2.77;;;29.40;99.90;;;;;;1889135;76;21153;-74
2021/09/03 12:27:13;;;;;;;3.62;2.70;;;29.80;99.70;;;;;;1889124;76;21381;-74
2021/09/03 12:29:36;;;;;;;3.05;2.80;;;29.30;99.20;;;;;;1888994;75;21101;-74
2021/09/03 12:32:02;;;;;;;3.00;2.70;;;29.30;99.60;;;;;;1889312;76;21105;-73
2021/09/03 12:34:28;;;;;;;3.65;2.47;;;30.00;98.60;;;;;;1889220;76;21185;-73
2021/09/03 12:36:54;;;;;;;2.75;2.55;;;30.10;98.00;;;;;;1889220;76;21058;-73
2021/09/03 12:39:20;;;;;;;3.12;2.80;;;30.00;98.80;;;;;;1889160;76;21064;-73